createdAt,value
2018-08-04T00:00:13.453Z,7.8
2018-08-04T00:01:14.902Z,7.8
2018-08-04T00:02:16.344Z,7.8
2018-08-04T00:03:17.613Z,7.8
2018-08-04T00:04:19.075Z,7.8
2018-08-04T00:05:20.682Z,7.8
2018-08-04T00:06:22.120Z,7.8
2018-08-04T00:07:23.726Z,7.8
2018-08-04T00:08:25.016Z,7.8
2018-08-04T00:09:26.452Z,7.8
2018-08-04T00:10:27.929Z,7.8
2018-08-04T00:11:29.546Z,7.8
2018-08-04T00:12:31.130Z,7.8
2018-08-04T00:13:32.414Z,7.8
2018-08-04T00:14:33.867Z,7.8
2018-08-04T00:15:35.482Z,7.8
2018-08-04T00:16:37.086Z,7.8
2018-08-04T00:17:38.365Z,7.8
2018-08-04T00:18:39.797Z,7.8
2018-08-04T00:19:41.250Z,7.8
2018-08-04T00:20:42.856Z,7.8
2018-08-04T00:21:44.468Z,7.8
2018-08-04T00:22:46.079Z,7.8
2018-08-04T00:23:47.684Z,7.8
2018-08-04T00:24:49.277Z,7.8
2018-08-04T00:25:50.945Z,7.8
2018-08-04T00:26:52.383Z,7.8
2018-08-04T00:27:53.829Z,7.8
2018-08-04T00:28:54.773Z,7.8
2018-08-04T00:29:56.066Z,7.8
2018-08-04T00:30:57.673Z,7.8
2018-08-04T00:31:59.287Z,7.8
2018-08-04T00:33:00.901Z,7.8
2018-08-04T00:34:02.196Z,7.8
2018-08-04T00:35:03.815Z,7.8
2018-08-04T00:36:05.435Z,7.8
2018-08-04T00:37:07.052Z,7.8
2018-08-04T00:38:08.489Z,7.8
2018-08-04T00:39:10.074Z,7.8
2018-08-04T00:40:11.513Z,7.8
2018-08-04T00:41:12.945Z,7.8
2018-08-04T00:42:14.390Z,7.8
2018-08-04T00:43:15.989Z,7.8
2018-08-04T00:44:17.600Z,7.8
2018-08-04T00:45:19.202Z,7.8
2018-08-04T00:46:20.798Z,7.8
2018-08-04T00:47:22.092Z,7.8
2018-08-04T00:48:23.732Z,7.8
2018-08-04T00:49:25.345Z,7.8
2018-08-04T00:50:26.963Z,7.8
2018-08-04T00:51:28.564Z,7.8
2018-08-04T00:52:29.819Z,7.8
2018-08-04T00:53:31.244Z,7.8
2018-08-04T00:54:32.673Z,7.8
2018-08-04T00:55:34.095Z,7.8
2018-08-04T00:56:35.550Z,7.8
2018-08-04T00:57:37.156Z,7.8
2018-08-04T00:58:38.645Z,7.8
2018-08-04T00:59:40.261Z,7.8
2018-08-04T01:00:41.864Z,7.8
2018-08-04T01:01:43.315Z,7.8
2018-08-04T01:02:44.928Z,7.8
2018-08-04T01:03:46.205Z,7.8
2018-08-04T01:04:47.822Z,7.8
2018-08-04T01:05:49.097Z,7.8
2018-08-04T01:06:50.699Z,7.8
2018-08-04T01:07:52.296Z,7.8
2018-08-04T01:08:53.731Z,7.8
2018-08-04T01:09:55.006Z,7.8
2018-08-04T01:10:56.608Z,7.8
2018-08-04T01:11:58.205Z,7.8
2018-08-04T01:12:59.825Z,7.8
2018-08-04T01:14:01.447Z,7.8
2018-08-04T01:15:02.905Z,7.8
2018-08-04T01:16:04.520Z,7.8
2018-08-04T01:17:06.131Z,7.8
2018-08-04T01:18:07.754Z,7.8
2018-08-04T01:19:09.206Z,7.7
2018-08-04T01:20:10.812Z,7.7
2018-08-04T01:21:12.421Z,7.6
2018-08-04T01:22:14.018Z,7.5
2018-08-04T01:23:15.628Z,7.4
2018-08-04T01:24:17.248Z,7.3
2018-08-04T01:25:18.854Z,7.2
2018-08-04T01:26:20.118Z,7.2
2018-08-04T01:27:21.748Z,7.2
2018-08-04T01:28:23.161Z,7.2
2018-08-04T01:29:24.761Z,7.2
2018-08-04T01:30:26.184Z,7.2
2018-08-04T01:31:27.456Z,7.2
2018-08-04T01:32:29.041Z,7.2
2018-08-04T01:33:30.468Z,7.2
2018-08-04T01:34:31.732Z,7.2
2018-08-04T01:35:33.352Z,7.2
2018-08-04T01:36:35.009Z,7.2
2018-08-04T01:37:36.630Z,7.2
2018-08-04T01:38:38.250Z,7.2
2018-08-04T01:39:39.727Z,7.2
2018-08-04T01:40:41.020Z,7.2
2018-08-04T01:41:42.452Z,7.2
2018-08-04T01:42:43.882Z,7.2
2018-08-04T01:43:45.333Z,7.2
2018-08-04T01:44:46.928Z,7.2
2018-08-04T01:45:48.192Z,7.2
2018-08-04T01:46:49.629Z,7.2
2018-08-04T01:47:51.220Z,7.2
2018-08-04T01:48:52.646Z,7.2
2018-08-04T01:49:54.231Z,7.2
2018-08-04T01:50:55.863Z,7.2
2018-08-04T01:51:57.487Z,7.2
2018-08-04T01:52:59.089Z,7.2
2018-08-04T01:54:00.345Z,7.2
2018-08-04T01:55:01.980Z,7.2
2018-08-04T01:56:03.426Z,7.2
2018-08-04T01:57:04.865Z,7.2
2018-08-04T01:58:06.316Z,7.2
2018-08-04T01:59:08.066Z,7.2
2018-08-04T02:00:09.523Z,7.2
2018-08-04T02:01:11.128Z,7.2
2018-08-04T02:02:12.384Z,7.2
2018-08-04T02:03:14.002Z,7.2
2018-08-04T02:04:15.604Z,7.2
2018-08-04T02:05:17.251Z,7.2
2018-08-04T02:06:18.853Z,7.2
2018-08-04T02:07:20.974Z,7.2
2018-08-04T02:08:22.614Z,7.2
2018-08-04T02:09:23.860Z,7.2
2018-08-04T02:10:25.478Z,7.2
2018-08-04T02:11:26.940Z,7.2
2018-08-04T02:12:28.526Z,7.3
2018-08-04T02:13:29.807Z,7.3
2018-08-04T02:14:31.414Z,7.3
2018-08-04T02:15:32.853Z,7.3
2018-08-04T02:16:34.124Z,7.3
2018-08-04T02:17:35.742Z,7.3
2018-08-04T02:18:37.351Z,7.4
2018-08-04T02:19:38.956Z,7.4
2018-08-04T02:20:40.552Z,7.4
2018-08-04T02:21:41.823Z,7.4
2018-08-04T02:22:43.275Z,7.4
2018-08-04T02:23:44.707Z,7.5
2018-08-04T02:24:46.301Z,7.5
2018-08-04T02:25:47.913Z,7.5
2018-08-04T02:26:49.353Z,7.5
2018-08-04T02:27:50.650Z,7.6
2018-08-04T02:28:52.258Z,7.6
2018-08-04T02:29:53.703Z,7.6
2018-08-04T02:30:55.350Z,7.7
2018-08-04T02:31:56.952Z,7.7
2018-08-04T02:32:58.419Z,7.7
2018-08-04T02:33:59.719Z,7.7
2018-08-04T02:35:01.320Z,7.8
2018-08-04T02:36:02.965Z,7.8
2018-08-04T02:37:04.629Z,7.8
2018-08-04T02:38:06.239Z,7.8
2018-08-04T02:39:07.695Z,7.8
2018-08-04T02:40:08.975Z,7.8
2018-08-04T02:41:10.603Z,7.8
2018-08-04T02:42:12.055Z,7.8
2018-08-04T02:43:13.519Z,7.8
2018-08-04T02:44:14.791Z,7.8
2018-08-04T02:45:16.238Z,7.8
2018-08-04T02:46:17.515Z,7.8
2018-08-04T02:47:19.145Z,7.8
2018-08-04T02:48:20.775Z,7.9
2018-08-04T02:49:22.404Z,7.8
2018-08-04T02:50:24.041Z,7.8
2018-08-04T02:51:25.665Z,7.9
2018-08-04T02:52:27.106Z,7.9
2018-08-04T02:53:28.713Z,7.9
2018-08-04T02:54:30.315Z,7.9
2018-08-04T02:55:31.763Z,7.9
2018-08-04T02:56:33.187Z,7.9
2018-08-04T02:57:34.819Z,7.9
2018-08-04T02:58:36.288Z,7.9
2018-08-04T02:59:37.929Z,7.9
2018-08-04T03:00:39.539Z,7.9
2018-08-04T03:01:40.998Z,7.8
2018-08-04T03:02:42.604Z,7.9
2018-08-04T03:03:44.040Z,7.8
2018-08-04T03:04:45.691Z,7.8
2018-08-04T03:05:47.295Z,7.8
2018-08-04T03:06:48.910Z,7.8
2018-08-04T03:07:50.511Z,7.8
2018-08-04T03:08:51.986Z,7.8
2018-08-04T03:09:53.294Z,7.8
2018-08-04T03:10:54.946Z,7.8
2018-08-04T03:11:56.622Z,7.8
2018-08-04T03:12:58.231Z,7.9
2018-08-04T03:13:59.845Z,7.8
2018-08-04T03:15:01.322Z,7.8
2018-08-04T03:16:02.926Z,7.8
2018-08-04T03:17:04.395Z,7.8
2018-08-04T03:18:05.859Z,7.8
2018-08-04T03:19:07.336Z,7.8
2018-08-04T03:20:08.598Z,7.8
2018-08-04T03:21:10.229Z,7.8
2018-08-04T03:22:11.838Z,7.8
2018-08-04T03:23:13.268Z,7.8
2018-08-04T03:24:14.868Z,7.8
2018-08-04T03:25:16.146Z,7.8
2018-08-04T03:26:17.777Z,7.8
2018-08-04T03:27:19.221Z,7.8
2018-08-04T03:28:20.557Z,7.8
2018-08-04T03:29:22.147Z,7.8
2018-08-04T03:30:23.597Z,7.8
2018-08-04T03:31:24.939Z,7.7
2018-08-04T03:32:26.523Z,7.7
2018-08-04T03:33:27.962Z,7.7
2018-08-04T03:34:29.394Z,7.6
2018-08-04T03:35:30.997Z,7.6
2018-08-04T03:36:32.423Z,7.5
2018-08-04T03:37:34.030Z,7.4
2018-08-04T03:38:35.471Z,7.3
2018-08-04T03:39:36.903Z,7.2
2018-08-04T03:40:38.507Z,7.2
2018-08-04T03:41:39.945Z,7.2
2018-08-04T03:42:41.280Z,7.2
2018-08-04T03:43:42.722Z,7.2
2018-08-04T03:44:44.339Z,7.2
2018-08-04T03:45:45.968Z,7.2
2018-08-04T03:46:47.563Z,7.2
2018-08-04T03:47:48.990Z,7.2
2018-08-04T03:48:50.423Z,7.2
2018-08-04T03:49:52.027Z,7.2
2018-08-04T03:50:53.489Z,7.2
2018-08-04T03:51:55.097Z,7.2
2018-08-04T03:52:56.696Z,7.2
2018-08-04T03:53:58.309Z,7.2
2018-08-04T03:54:59.756Z,7.2
2018-08-04T03:56:01.195Z,7.2
2018-08-04T03:57:02.806Z,7.2
2018-08-04T03:58:04.407Z,7.2
2018-08-04T03:59:05.835Z,7.2
2018-08-04T04:00:07.447Z,7.2
2018-08-04T04:01:09.071Z,7.2
2018-08-04T04:02:10.678Z,7.2
2018-08-04T04:03:12.279Z,7.2
2018-08-04T04:04:13.368Z,7.2
2018-08-04T04:05:14.628Z,7.2
2018-08-04T04:06:16.049Z,7.2
2018-08-04T04:07:17.678Z,7.2
2018-08-04T04:08:19.100Z,7.2
2018-08-04T04:09:20.545Z,7.2
2018-08-04T04:10:21.998Z,7.2
2018-08-04T04:11:23.586Z,7.2
2018-08-04T04:12:25.237Z,7.2
2018-08-04T04:13:26.677Z,7.2
2018-08-04T04:14:28.286Z,7.2
2018-08-04T04:15:29.563Z,7.3
2018-08-04T04:16:30.848Z,7.3
2018-08-04T04:17:32.446Z,7.3
2018-08-04T04:18:33.891Z,7.3
2018-08-04T04:19:35.322Z,7.3
2018-08-04T04:20:36.758Z,7.3
2018-08-04T04:21:38.359Z,7.4
2018-08-04T04:22:39.813Z,7.4
2018-08-04T04:23:41.419Z,7.4
2018-08-04T04:24:43.026Z,7.4
2018-08-04T04:25:44.494Z,7.5
2018-08-04T04:26:45.928Z,7.5
2018-08-04T04:27:47.542Z,7.5
2018-08-04T04:28:49.152Z,7.5
2018-08-04T04:29:50.772Z,7.5
2018-08-04T04:30:52.381Z,7.6
2018-08-04T04:31:53.990Z,7.6
2018-08-04T04:32:55.595Z,7.6
2018-08-04T04:33:57.225Z,7.7
2018-08-04T04:34:58.502Z,7.7
2018-08-04T04:36:00.100Z,7.7
2018-08-04T04:37:02.187Z,7.8
2018-08-04T04:38:03.696Z,7.8
2018-08-04T04:39:05.308Z,7.8
2018-08-04T04:40:06.912Z,7.8
2018-08-04T04:41:08.509Z,7.8
2018-08-04T04:42:10.510Z,7.8
2018-08-04T04:43:11.986Z,7.8
2018-08-04T04:44:13.749Z,7.8
2018-08-04T04:45:15.381Z,7.9
2018-08-04T04:46:16.908Z,7.9
2018-08-04T04:47:18.496Z,7.8
2018-08-04T04:48:20.138Z,7.8
2018-08-04T04:49:21.856Z,7.8
2018-08-04T04:50:23.672Z,7.8
2018-08-04T04:51:25.378Z,7.8
2018-08-04T04:52:26.990Z,7.8
2018-08-04T04:53:28.432Z,7.8
2018-08-04T04:54:30.031Z,7.8
2018-08-04T04:55:32.085Z,7.8
2018-08-04T04:56:33.590Z,7.8
2018-08-04T04:57:35.199Z,7.8
2018-08-04T04:58:36.806Z,7.8
2018-08-04T04:59:38.450Z,7.9
2018-08-04T05:00:39.915Z,7.9
2018-08-04T05:01:41.575Z,7.8
2018-08-04T05:02:45.074Z,7.9
2018-08-04T05:03:46.536Z,7.8
2018-08-04T05:04:48.449Z,7.9
2018-08-04T05:05:50.078Z,7.8
2018-08-04T05:06:51.560Z,7.8
2018-08-04T05:07:53.064Z,7.8
2018-08-04T05:08:54.688Z,7.8
2018-08-04T05:09:56.739Z,7.8
2018-08-04T05:10:58.197Z,7.8
2018-08-04T05:11:59.646Z,7.9
2018-08-04T05:13:01.288Z,7.9
2018-08-04T05:14:02.930Z,7.8
2018-08-04T05:15:04.558Z,7.8
2018-08-04T05:16:06.192Z,7.8
2018-08-04T05:17:07.790Z,7.8
2018-08-04T05:18:09.224Z,7.8
2018-08-04T05:19:10.840Z,7.8
2018-08-04T05:20:12.437Z,7.8
2018-08-04T05:21:14.030Z,7.8
2018-08-04T05:22:15.666Z,7.8
2018-08-04T05:23:17.380Z,7.8
2018-08-04T05:24:19.037Z,7.8
2018-08-04T05:25:20.672Z,7.8
2018-08-04T05:26:21.937Z,7.8
2018-08-04T05:27:23.368Z,7.8
2018-08-04T05:28:24.809Z,7.8
2018-08-04T05:29:26.241Z,7.8
2018-08-04T05:30:27.519Z,7.8
2018-08-04T05:31:29.137Z,7.8
2018-08-04T05:32:30.567Z,7.8
2018-08-04T05:33:31.996Z,7.8
2018-08-04T05:34:33.596Z,7.8
2018-08-04T05:35:35.041Z,7.8
2018-08-04T05:36:36.373Z,7.8
2018-08-04T05:37:38.024Z,7.8
2018-08-04T05:38:39.495Z,7.8
2018-08-04T05:39:41.134Z,7.7
2018-08-04T05:40:42.740Z,7.7
2018-08-04T05:41:44.190Z,7.7
2018-08-04T05:42:46.097Z,7.6
2018-08-04T05:43:47.557Z,7.6
2018-08-04T05:44:49.184Z,7.5
2018-08-04T05:45:50.774Z,7.4
2018-08-04T05:46:52.376Z,7.3
2018-08-04T05:47:54.001Z,7.2
2018-08-04T05:48:55.612Z,7.2
2018-08-04T05:49:57.451Z,7.2
2018-08-04T05:50:59.095Z,7.2
2018-08-04T05:52:00.538Z,7.2
2018-08-04T05:53:02.154Z,7.2
2018-08-04T05:54:03.602Z,7.2
2018-08-04T05:55:05.054Z,7.2
2018-08-04T05:56:06.657Z,7.2
2018-08-04T05:57:07.756Z,7.2
2018-08-04T05:58:08.876Z,7.2
2018-08-04T05:59:10.316Z,7.2
2018-08-04T06:00:12.144Z,7.2
2018-08-04T06:01:13.657Z,7.2
2018-08-04T06:02:15.117Z,7.2
2018-08-04T06:03:17.120Z,7.2
2018-08-04T06:04:18.457Z,7.2
2018-08-04T06:05:19.887Z,7.2
2018-08-04T06:06:21.496Z,7.2
2018-08-04T06:07:22.938Z,7.2
2018-08-04T06:08:24.384Z,7.2
2018-08-04T06:09:25.822Z,7.2
2018-08-04T06:10:27.424Z,7.2
2018-08-04T06:11:28.878Z,7.2
2018-08-04T06:12:30.317Z,7.2
2018-08-04T06:13:31.777Z,7.2
2018-08-04T06:14:33.385Z,7.2
2018-08-04T06:15:34.841Z,7.2
2018-08-04T06:16:36.437Z,7.2
2018-08-04T06:17:38.036Z,7.2
2018-08-04T06:18:39.306Z,7.2
2018-08-04T06:19:40.914Z,7.2
2018-08-04T06:20:42.211Z,7.2
2018-08-04T06:21:43.827Z,7.2
2018-08-04T06:22:45.448Z,7.2
2018-08-04T06:23:47.402Z,7.2
2018-08-04T06:24:48.833Z,7.2
2018-08-04T06:25:50.445Z,7.2
2018-08-04T06:26:51.932Z,7.2
2018-08-04T06:27:53.538Z,7.2
2018-08-04T06:28:54.816Z,7.2
2018-08-04T06:29:56.412Z,7.2
2018-08-04T06:30:57.857Z,7.2
2018-08-04T06:31:59.479Z,7.2
2018-08-04T06:33:01.085Z,7.2
2018-08-04T06:34:02.671Z,7.2
2018-08-04T06:35:03.786Z,7.2
2018-08-04T06:36:05.462Z,7.2
2018-08-04T06:37:06.916Z,7.2
2018-08-04T06:38:08.518Z,7.2
2018-08-04T06:39:10.143Z,7.3
2018-08-04T06:40:11.615Z,7.3
2018-08-04T06:41:13.238Z,7.3
2018-08-04T06:42:14.858Z,7.3
2018-08-04T06:43:16.445Z,7.3
2018-08-04T06:44:17.922Z,7.3
2018-08-04T06:45:19.541Z,7.3
2018-08-04T06:46:21.169Z,7.3
2018-08-04T06:47:22.781Z,7.4
2018-08-04T06:48:24.456Z,7.4
2018-08-04T06:49:26.089Z,7.4
2018-08-04T06:50:27.700Z,7.4
2018-08-04T06:51:29.125Z,7.4
2018-08-04T06:52:30.571Z,7.4
2018-08-04T06:53:32.193Z,7.5
2018-08-04T06:54:33.827Z,7.5
2018-08-04T06:55:35.471Z,7.5
2018-08-04T06:56:36.772Z,7.5
2018-08-04T06:57:38.387Z,7.5
2018-08-04T06:58:40.052Z,7.5
2018-08-04T06:59:41.672Z,7.5
2018-08-04T07:00:42.943Z,7.5
2018-08-04T07:01:44.560Z,7.5
2018-08-04T07:02:46.000Z,7.5
2018-08-04T07:03:47.605Z,7.5
2018-08-04T07:04:49.229Z,7.5
2018-08-04T07:05:50.901Z,7.5
2018-08-04T07:06:52.894Z,7.6
2018-08-04T07:07:54.348Z,7.6
2018-08-04T07:08:55.951Z,7.6
2018-08-04T07:09:57.228Z,7.6
2018-08-04T07:10:58.836Z,7.6
2018-08-04T07:12:00.446Z,7.7
2018-08-04T07:13:02.043Z,7.7
2018-08-04T07:14:03.466Z,7.7
2018-08-04T07:15:04.748Z,7.7
2018-08-04T07:16:06.187Z,7.7
2018-08-04T07:17:07.818Z,7.8
2018-08-04T07:18:09.450Z,7.8
2018-08-04T07:19:11.077Z,7.8
2018-08-04T07:20:12.689Z,7.8
2018-08-04T07:21:14.293Z,7.8
2018-08-04T07:22:15.886Z,7.8
2018-08-04T07:23:17.155Z,7.8
2018-08-04T07:24:18.607Z,7.8
2018-08-04T07:25:20.232Z,7.8
2018-08-04T07:26:21.672Z,7.8
2018-08-04T07:27:23.113Z,7.8
2018-08-04T07:28:24.781Z,7.8
2018-08-04T07:29:26.394Z,7.8
2018-08-04T07:30:27.829Z,7.8
2018-08-04T07:31:29.293Z,7.7
2018-08-04T07:32:30.551Z,7.7
2018-08-04T07:33:32.181Z,7.7
2018-08-04T07:34:33.786Z,7.7
2018-08-04T07:35:35.399Z,7.7
2018-08-04T07:36:37.162Z,7.7
2018-08-04T07:37:38.432Z,7.8
2018-08-04T07:38:39.854Z,7.8
2018-08-04T07:39:40.967Z,7.8
2018-08-04T07:40:42.435Z,7.8
2018-08-04T07:41:44.087Z,7.8
2018-08-04T07:42:45.722Z,7.8
2018-08-04T07:43:47.340Z,7.8
2018-08-04T07:44:48.769Z,7.8
2018-08-04T07:45:50.389Z,7.8
2018-08-04T07:46:51.712Z,7.8
2018-08-04T07:47:53.005Z,7.8
2018-08-04T07:48:54.614Z,7.8
2018-08-04T07:49:56.066Z,7.7
2018-08-04T07:50:57.520Z,7.7
2018-08-04T07:51:59.134Z,7.6
2018-08-04T07:53:00.726Z,7.6
2018-08-04T07:54:02.366Z,7.5
2018-08-04T07:55:03.965Z,7.4
2018-08-04T07:56:05.453Z,7.3
2018-08-04T07:57:07.087Z,7.2
2018-08-04T07:58:08.560Z,7.2
2018-08-04T07:59:10.161Z,7.2
2018-08-04T08:00:11.777Z,7.2
2018-08-04T08:01:13.233Z,7.2
2018-08-04T08:02:14.842Z,7.2
2018-08-04T08:03:16.305Z,7.2
2018-08-04T08:04:17.593Z,7.2
2018-08-04T08:05:18.892Z,7.2
2018-08-04T08:06:20.630Z,7.2
2018-08-04T08:07:22.302Z,7.2
2018-08-04T08:08:24.005Z,7.2
2018-08-04T08:09:25.540Z,7.2
2018-08-04T08:10:27.665Z,7.2
2018-08-04T08:11:29.397Z,7.2
2018-08-04T08:12:30.853Z,7.2
2018-08-04T08:13:32.469Z,7.2
2018-08-04T08:14:33.920Z,7.2
2018-08-04T08:15:35.529Z,7.2
2018-08-04T08:16:37.135Z,7.2
2018-08-04T08:17:38.749Z,7.2
2018-08-04T08:18:40.380Z,7.2
2018-08-04T08:19:41.836Z,7.2
2018-08-04T08:20:42.773Z,7.2
2018-08-04T08:21:44.378Z,7.2
2018-08-04T08:22:45.971Z,7.2
2018-08-04T08:23:47.250Z,7.3
2018-08-04T08:24:49.111Z,7.3
2018-08-04T08:25:50.751Z,7.3
2018-08-04T08:26:52.351Z,7.3
2018-08-04T08:27:53.789Z,7.3
2018-08-04T08:28:55.395Z,7.3
2018-08-04T08:29:57.017Z,7.3
2018-08-04T08:30:58.626Z,7.3
2018-08-04T08:32:00.071Z,7.3
2018-08-04T08:33:01.694Z,7.3
2018-08-04T08:34:02.977Z,7.3
2018-08-04T08:35:04.599Z,7.4
2018-08-04T08:36:06.037Z,7.4
2018-08-04T08:37:07.699Z,7.4
2018-08-04T08:38:09.321Z,7.4
2018-08-04T08:39:10.759Z,7.5
2018-08-04T08:40:12.366Z,7.5
2018-08-04T08:41:13.985Z,7.5
2018-08-04T08:42:15.646Z,7.6
2018-08-04T08:43:17.079Z,7.6
2018-08-04T08:44:18.731Z,7.6
2018-08-04T08:45:20.323Z,7.6
2018-08-04T08:46:21.958Z,7.7
2018-08-04T08:47:23.392Z,7.7
2018-08-04T08:48:25.008Z,7.7
2018-08-04T08:49:26.631Z,7.7
2018-08-04T08:50:28.279Z,7.8
2018-08-04T08:51:29.717Z,7.8
2018-08-04T08:52:31.000Z,7.8
2018-08-04T08:53:34.858Z,7.8
2018-08-04T08:54:36.570Z,7.7
2018-08-04T08:55:38.185Z,7.7
2018-08-04T08:56:39.810Z,7.8
2018-08-04T08:57:41.268Z,7.8
2018-08-04T08:58:42.873Z,7.8
2018-08-04T08:59:44.502Z,7.8
2018-08-04T09:00:45.840Z,7.8
2018-08-04T09:01:47.476Z,7.8
2018-08-04T09:02:48.932Z,7.8
2018-08-04T09:03:50.534Z,7.8
2018-08-04T09:04:52.161Z,7.8
2018-08-04T09:05:53.782Z,7.8
2018-08-04T09:06:55.386Z,7.8
2018-08-04T09:07:57.004Z,7.8
2018-08-04T09:08:58.474Z,7.8
2018-08-04T09:10:00.063Z,7.8
2018-08-04T09:11:01.504Z,7.8
2018-08-04T09:12:03.157Z,7.8
2018-08-04T09:13:04.603Z,7.8
2018-08-04T09:14:06.207Z,7.8
2018-08-04T09:15:07.805Z,7.8
2018-08-04T09:16:09.409Z,7.8
2018-08-04T09:17:11.035Z,7.8
2018-08-04T09:18:12.642Z,7.8
2018-08-04T09:19:14.326Z,7.8
2018-08-04T09:20:16.037Z,7.8
2018-08-04T09:21:17.682Z,7.8
2018-08-04T09:22:18.994Z,7.8
2018-08-04T09:23:20.439Z,7.8
2018-08-04T09:24:21.721Z,7.8
2018-08-04T09:25:23.340Z,7.8
2018-08-04T09:26:24.978Z,7.8
2018-08-04T09:27:26.596Z,7.8
2018-08-04T09:28:28.039Z,7.8
2018-08-04T09:29:29.316Z,7.8
2018-08-04T09:30:30.444Z,7.8
2018-08-04T09:31:31.883Z,7.9
2018-08-04T09:32:33.504Z,7.9
2018-08-04T09:33:35.121Z,7.9
2018-08-04T09:34:36.727Z,7.9
2018-08-04T09:35:38.237Z,7.8
2018-08-04T09:36:39.887Z,7.8
2018-08-04T09:37:41.553Z,7.8
2018-08-04T09:38:42.991Z,7.8
2018-08-04T09:39:44.468Z,7.8
2018-08-04T09:40:46.108Z,7.7
2018-08-04T09:41:47.724Z,7.7
2018-08-04T09:42:49.153Z,7.6
2018-08-04T09:43:50.785Z,7.6
2018-08-04T09:44:52.082Z,7.5
2018-08-04T09:45:53.696Z,7.4
2018-08-04T09:46:55.143Z,7.3
2018-08-04T09:47:56.615Z,7.2
2018-08-04T09:48:58.247Z,7.2
2018-08-04T09:49:59.683Z,7.2
2018-08-04T09:51:01.459Z,7.2
2018-08-04T09:52:03.084Z,7.2
2018-08-04T09:53:04.698Z,7.2
2018-08-04T09:54:06.316Z,7.2
2018-08-04T09:55:07.917Z,7.2
2018-08-04T09:56:09.528Z,7.2
2018-08-04T09:57:10.975Z,7.2
2018-08-04T09:58:12.638Z,7.2
2018-08-04T09:59:14.281Z,7.2
2018-08-04T10:00:15.893Z,7.2
2018-08-04T10:01:17.504Z,7.2
2018-08-04T10:02:19.120Z,7.2
2018-08-04T10:03:20.720Z,7.2
2018-08-04T10:04:22.328Z,7.2
2018-08-04T10:05:24.041Z,7.2
2018-08-04T10:06:25.653Z,7.2
2018-08-04T10:07:27.274Z,7.2
2018-08-04T10:08:28.391Z,7.2
2018-08-04T10:09:29.827Z,7.2
2018-08-04T10:10:31.450Z,7.2
2018-08-04T10:11:32.893Z,7.3
2018-08-04T10:12:34.586Z,7.3
2018-08-04T10:13:36.041Z,7.3
2018-08-04T10:14:37.671Z,7.3
2018-08-04T10:15:38.954Z,7.3
2018-08-04T10:16:40.564Z,7.3
2018-08-04T10:17:42.170Z,7.3
2018-08-04T10:18:43.774Z,7.3
2018-08-04T10:19:45.215Z,7.3
2018-08-04T10:20:46.645Z,7.3
2018-08-04T10:21:48.285Z,7.4
2018-08-04T10:22:49.888Z,7.4
2018-08-04T10:23:51.498Z,7.4
2018-08-04T10:24:53.105Z,7.4
2018-08-04T10:25:54.944Z,7.4
2018-08-04T10:26:56.179Z,7.4
2018-08-04T10:27:57.811Z,7.4
2018-08-04T10:28:59.259Z,7.4
2018-08-04T10:30:00.733Z,7.5
2018-08-04T10:31:02.341Z,7.5
2018-08-04T10:32:04.938Z,7.5
2018-08-04T10:33:06.638Z,7.5
2018-08-04T10:34:08.257Z,7.6
2018-08-04T10:35:09.728Z,7.6
2018-08-04T10:36:11.366Z,7.6
2018-08-04T10:37:12.859Z,7.6
2018-08-04T10:38:14.516Z,7.7
2018-08-04T10:39:16.138Z,7.7
2018-08-04T10:40:17.758Z,7.7
2018-08-04T10:41:19.041Z,7.7
2018-08-04T10:42:20.537Z,7.7
2018-08-04T10:43:21.819Z,7.7
2018-08-04T10:44:23.266Z,7.7
2018-08-04T10:45:24.889Z,7.8
2018-08-04T10:46:26.614Z,7.8
2018-08-04T10:47:28.309Z,7.8
2018-08-04T10:48:30.009Z,7.8
2018-08-04T10:49:32.125Z,7.8
2018-08-04T10:50:33.774Z,7.8
2018-08-04T10:51:35.240Z,7.8
2018-08-04T10:52:36.698Z,7.8
2018-08-04T10:53:38.120Z,7.8
2018-08-04T10:54:39.802Z,7.8
2018-08-04T10:55:41.416Z,7.8
2018-08-04T10:56:43.034Z,7.8
2018-08-04T10:57:44.667Z,7.8
2018-08-04T10:58:46.277Z,7.8
2018-08-04T10:59:47.872Z,7.8
2018-08-04T11:00:49.483Z,7.8
2018-08-04T11:01:50.949Z,7.8
2018-08-04T11:02:52.567Z,7.8
2018-08-04T11:03:54.170Z,7.8
2018-08-04T11:04:55.886Z,7.8
2018-08-04T11:05:57.493Z,7.8
2018-08-04T11:06:59.090Z,7.8
2018-08-04T11:08:00.697Z,7.8
2018-08-04T11:09:02.298Z,7.8
2018-08-04T11:10:03.734Z,7.8
2018-08-04T11:11:05.359Z,7.8
2018-08-04T11:12:06.959Z,7.8
2018-08-04T11:13:08.500Z,7.8
2018-08-04T11:14:10.122Z,7.8
2018-08-04T11:15:11.749Z,7.8
2018-08-04T11:16:13.190Z,7.8
2018-08-04T11:17:14.636Z,7.8
2018-08-04T11:18:16.561Z,7.8
2018-08-04T11:19:18.186Z,7.8
2018-08-04T11:20:19.663Z,7.8
2018-08-04T11:21:21.273Z,7.8
2018-08-04T11:22:22.416Z,7.8
2018-08-04T11:23:24.023Z,7.9
2018-08-04T11:24:25.673Z,7.8
2018-08-04T11:25:27.122Z,7.8
2018-08-04T11:26:28.552Z,7.8
2018-08-04T11:27:30.005Z,7.8
2018-08-04T11:28:31.470Z,7.8
2018-08-04T11:29:33.192Z,7.7
2018-08-04T11:30:34.632Z,7.7
2018-08-04T11:31:35.736Z,7.7
2018-08-04T11:32:37.210Z,7.6
2018-08-04T11:33:38.810Z,7.5
2018-08-04T11:34:40.245Z,7.4
2018-08-04T11:35:41.857Z,7.3
2018-08-04T11:36:43.477Z,7.3
2018-08-04T11:37:45.298Z,7.2
2018-08-04T11:38:46.960Z,7.2
2018-08-04T11:39:48.601Z,7.2
2018-08-04T11:40:50.225Z,7.2
2018-08-04T11:41:51.838Z,7.2
2018-08-04T11:42:53.442Z,7.2
2018-08-04T11:43:54.703Z,7.2
2018-08-04T11:44:56.135Z,7.2
2018-08-04T11:45:57.575Z,7.2
2018-08-04T11:46:59.026Z,7.2
2018-08-04T11:48:00.476Z,7.2
2018-08-04T11:49:02.298Z,7.2
2018-08-04T11:50:03.922Z,7.2
2018-08-04T11:51:05.210Z,7.2
2018-08-04T11:52:06.816Z,7.2
2018-08-04T11:53:08.420Z,7.2
2018-08-04T11:54:09.867Z,7.2
2018-08-04T11:55:11.491Z,7.2
2018-08-04T11:56:13.089Z,7.2
2018-08-04T11:57:14.703Z,7.2
2018-08-04T11:58:16.294Z,7.2
2018-08-04T11:59:17.777Z,7.3
2018-08-04T12:00:19.066Z,7.3
2018-08-04T12:01:20.508Z,7.3
2018-08-04T12:02:22.107Z,7.3
2018-08-04T12:03:23.726Z,7.3
2018-08-04T12:04:25.327Z,7.3
2018-08-04T12:05:27.368Z,7.3
2018-08-04T12:06:28.987Z,7.3
2018-08-04T12:07:30.678Z,7.3
2018-08-04T12:08:32.302Z,7.3
2018-08-04T12:09:33.909Z,7.3
2018-08-04T12:10:35.356Z,7.3
2018-08-04T12:11:36.645Z,7.4
2018-08-04T12:12:38.232Z,7.4
2018-08-04T12:13:39.838Z,7.4
2018-08-04T12:14:41.455Z,7.4
2018-08-04T12:15:42.916Z,7.4
2018-08-04T12:16:44.192Z,7.4
2018-08-04T12:17:45.633Z,7.4
2018-08-04T12:18:47.067Z,7.4
2018-08-04T12:19:48.526Z,7.4
2018-08-04T12:20:49.975Z,7.4
2018-08-04T12:21:51.434Z,7.4
2018-08-04T12:22:53.026Z,7.4
2018-08-04T12:23:54.477Z,7.4
2018-08-04T12:24:56.080Z,7.5
2018-08-04T12:25:57.512Z,7.5
2018-08-04T12:26:58.953Z,7.5
2018-08-04T12:28:00.594Z,7.6
2018-08-04T12:29:02.212Z,7.6
2018-08-04T12:30:03.863Z,7.6
2018-08-04T12:31:05.316Z,7.7
2018-08-04T12:32:06.964Z,7.7
2018-08-04T12:33:08.586Z,7.7
2018-08-04T12:34:10.086Z,7.7
2018-08-04T12:35:11.536Z,7.8
2018-08-04T12:36:13.152Z,7.8
2018-08-04T12:37:14.597Z,7.8
2018-08-04T12:38:16.256Z,7.8
2018-08-04T12:39:17.863Z,7.8
2018-08-04T12:40:19.472Z,7.8
2018-08-04T12:41:20.935Z,7.8
2018-08-04T12:42:22.593Z,7.8
2018-08-04T12:43:24.033Z,7.8
2018-08-04T12:44:25.650Z,7.8
2018-08-04T12:45:27.429Z,7.8
2018-08-04T12:46:29.023Z,7.8
2018-08-04T12:47:30.643Z,7.8
2018-08-04T12:48:32.122Z,7.8
2018-08-04T12:49:33.758Z,7.8
2018-08-04T12:50:35.364Z,7.8
2018-08-04T12:51:36.967Z,7.8
2018-08-04T12:52:38.575Z,7.8
2018-08-04T12:53:40.181Z,7.8
2018-08-04T12:54:41.813Z,7.8
2018-08-04T12:55:43.417Z,7.8
2018-08-04T12:56:45.027Z,7.8
2018-08-04T12:57:46.316Z,7.8
2018-08-04T12:58:47.756Z,7.8
2018-08-04T12:59:49.207Z,7.8
2018-08-04T13:00:50.661Z,7.8
2018-08-04T13:01:52.270Z,7.8
2018-08-04T13:02:53.865Z,7.8
2018-08-04T13:03:55.487Z,7.8
2018-08-04T13:04:56.957Z,7.8
2018-08-04T13:05:58.568Z,7.8
2018-08-04T13:07:00.169Z,7.8
2018-08-04T13:08:01.794Z,7.8
2018-08-04T13:09:03.438Z,7.8
2018-08-04T13:10:05.050Z,7.8
2018-08-04T13:11:06.496Z,7.8
2018-08-04T13:12:08.093Z,7.8
2018-08-04T13:13:09.690Z,7.8
2018-08-04T13:14:11.287Z,7.8
2018-08-04T13:15:12.749Z,7.8
2018-08-04T13:16:14.347Z,7.8
2018-08-04T13:17:15.940Z,7.8
2018-08-04T13:18:17.260Z,7.8
2018-08-04T13:19:18.875Z,7.8
2018-08-04T13:20:20.532Z,7.8
2018-08-04T13:21:22.131Z,7.8
2018-08-04T13:22:23.749Z,7.7
2018-08-04T13:23:25.375Z,7.7
2018-08-04T13:24:26.846Z,7.7
2018-08-04T13:25:28.116Z,7.6
2018-08-04T13:26:29.570Z,7.6
2018-08-04T13:27:31.048Z,7.5
2018-08-04T13:28:32.330Z,7.4
2018-08-04T13:29:34.059Z,7.3
2018-08-04T13:30:35.727Z,7.2
2018-08-04T13:31:37.349Z,7.2
2018-08-04T13:32:38.798Z,7.2
2018-08-04T13:33:40.240Z,7.2
2018-08-04T13:34:41.688Z,7.2
2018-08-04T13:35:43.295Z,7.2
2018-08-04T13:36:44.736Z,7.2
2018-08-04T13:37:46.414Z,7.2
2018-08-04T13:38:48.178Z,7.2
2018-08-04T13:39:49.814Z,7.2
2018-08-04T13:40:51.439Z,7.2
2018-08-04T13:41:53.047Z,7.2
2018-08-04T13:42:54.873Z,7.2
2018-08-04T13:43:56.331Z,7.2
2018-08-04T13:44:57.775Z,7.2
2018-08-04T13:45:59.431Z,7.2
2018-08-04T13:47:01.181Z,7.2
2018-08-04T13:48:02.815Z,7.2
2018-08-04T13:49:04.421Z,7.2
2018-08-04T13:50:05.860Z,7.2
2018-08-04T13:51:07.613Z,7.2
2018-08-04T13:52:09.334Z,7.2
2018-08-04T13:53:10.969Z,7.2
2018-08-04T13:54:12.598Z,7.2
2018-08-04T13:55:14.218Z,7.2
2018-08-04T13:56:15.822Z,7.2
2018-08-04T13:57:17.097Z,7.2
2018-08-04T13:58:18.711Z,7.2
2018-08-04T13:59:20.311Z,7.3
2018-08-04T14:00:21.917Z,7.3
2018-08-04T14:01:23.535Z,7.3
2018-08-04T14:02:24.987Z,7.3
2018-08-04T14:03:26.599Z,7.3
2018-08-04T14:04:28.034Z,7.3
2018-08-04T14:05:29.334Z,7.3
2018-08-04T14:06:30.793Z,7.3
2018-08-04T14:07:32.251Z,7.3